Latest Weather Observations for McArthur River Mine

IDD60801

Issued at 7:31 pm CST Thursday 21 February 2019 (issued every 10 minutes, with the page automatically refreshed every 10 minutes)

About weather observations | Map of weather stations | Latest weather observations for NT | Other Formats
Station Details ID: 014704 Name: MCARTHUR RIVER MINE AIRPORT Lat: -16.44 Lon: 136.08 Height: 40.0 m
Data from the previous 72 hours. | See also: Recent months at McArthur River Mine
Date/Time
CST
Temp
°C
App
Temp
°C
Dew
Point
°C
Rel
Hum
%
Delta-T
°C
Wind Press
QNH
hPa
Press
MSL
hPa
Rain since
9am
mm
Dir  Spd
km/h
Gust
km/h
Spd
kts
Gust
kts
21/07:30pm 27.5 27.7 20.6 66 4.6 WNW 20 32 11 17 1005.9 1005.6 19.4
21/07:13pm 25.7 25.4 20.3 72 3.5 WNW 22 33 12 18 1005.7 1005.4 19.4
21/07:00pm 26.4 25.0 20.5 70 3.9 NW 28 95 15 51 1005.3 1005.0 19.4
21/06:54pm 24.9 20.5 20.6 77 2.8 WSW 44 95 24 51 1005.8 1005.5 19.2
21/06:53pm 24.6 20.3 20.7 79 2.6 WSW 44 95 24 51 1006.4 1006.1 18.2
21/06:52pm 24.1 19.6 20.2 79 2.5 WSW 44 95 24 51 1006.9 1006.6 17.4
21/06:51pm 23.4 17.9 18.9 76 2.9 SW 46 95 25 51 1007.0 1006.7 15.8
21/06:50pm 23.2 18.4 19.6 80 2.3 SW 44 83 24 45 1009.0 1008.7 14.6
21/06:48pm 25.4 21.9 22.3 83 2.1 SW 44 83 24 45 1006.3 1006.0 10.0
21/06:32pm 26.1 24.4 21.3 75 3.2 W 32 59 17 32 1006.1 1005.8 7.0
21/06:30pm 26.2 24.3 21.0 73 3.4 WSW 32 56 17 30 1006.1 1005.8 6.8
21/06:24pm 27.4 21.5 22.1 73 3.6 S 56 107 30 58 1005.3 1005.0 5.8
21/06:22pm 27.4 20.8 21.7 71 3.8 S 59 107 32 58 1005.7 1005.4 4.2
21/06:21pm 27.5 21.0 21.3 69 4.1 S 57 107 31 58 1005.2 1004.9 3.2
21/06:16pm 24.5 19.5 13.4 50 6.5 SW 32 107 17 58 1003.9 1003.6 0.6
21/06:15pm 26.3 22.7 13.1 44 7.7 SW 24 107 13 58 1003.5 1003.2 0.2
21/06:14pm 32.5 31.9 17.5 40 9.6 WSW 17 78 9 42 1003.9 1003.6 0.0
21/06:00pm 40.3 39.2 13.0 20 16.9 NW 11 17 6 9 1003.7 1003.4 0.0
21/05:30pm 41.3 39.4 13.0 19 17.6 NW 15 20 8 11 1003.6 1003.3 0.0
21/05:00pm 41.0 39.3 13.6 20 17.1 NW 15 20 8 11 1003.7 1003.4 0.0
21/04:30pm 42.1 40.3 12.0 17 18.5 NNW 13 19 7 10 1003.8 1003.5 0.0
21/04:00pm 42.3 41.2 13.0 18 18.2 NNW 11 17 6 9 1004.0 1003.7 0.0
21/03:30pm 42.0 40.6 9.0 14 19.4 NNW 6 15 3 8 1004.4 1004.1 0.0
21/03:00pm 42.5 40.7 9.4 14 19.7 SSE 9 15 5 8 1004.8 1004.5 0.0
21/02:30pm 42.2 39.7 11.1 16 18.9 N 15 24 8 13 1005.3 1005.0 0.0
21/02:00pm 42.0 41.2 12.8 18 18.1 N 9 15 5 8 1006.0 1005.7 0.0
21/01:30pm 41.1 39.3 12.1 18 17.8 NNW 13 22 7 12 1006.5 1006.2 0.0
21/01:00pm 41.1 39.9 15.1 21 16.6 W 15 26 8 14 1007.2 1006.9 0.0
21/12:30pm 41.0 39.3 13.6 20 17.1 WSW 15 22 8 12 1008.0 1007.7 0.0
21/12:00pm 40.1 38.8 15.7 24 15.6 SSW 17 24 9 13 1008.6 1008.3 0.0
21/11:30am 39.7 41.1 17.8 28 14.4 S 7 11 4 6 1009.2 1008.9 0.0
21/11:00am 38.2 39.3 18.1 30 13.2 SW 9 17 5 9 1009.7 1009.4 0.0
21/10:30am 36.7 37.6 18.3 34 12.1 SW 11 17 6 9 1009.9 1009.6 0.0
21/10:00am 35.8 35.9 18.4 35 11.4 SW 15 22 8 12 1010.2 1009.9 0.0
21/09:30am 34.7 35.8 17.9 37 10.9 W 9 15 5 8 1010.2 1009.9 0.0
21/09:00am 33.7 35.1 17.8 38 10.3 WSW 7 17 4 9 1010.2 1009.9 0.0
21/08:30am 32.7 33.8 18.1 42 9.4 WNW 9 13 5 7 1010.3 1010.0 0.0
21/08:00am 30.8 33.4 18.5 47 8.0 NW 2 7 1 4 1010.3 1010.0 0.0
21/07:30am 28.8 32.2 19.4 56 6.1 CALM 0 0 0 0 1010.1 1009.8 0.0
21/07:00am 27.4 31.0 19.7 63 5.0 CALM 0 0 0 0 1009.8 1009.5 0.0
21/06:30am 26.4 29.9 19.5 66 4.5 CALM 0 0 0 0 1009.5 1009.2 0.0
21/06:00am 26.5 30.0 19.6 66 4.5 CALM 0 0 0 0 1009.0 1008.7 0.0
21/05:30am 26.7 29.9 19.8 66 4.5 NNW 2 7 1 4 1008.5 1008.2 0.0
21/05:00am 26.6 30.2 19.7 66 4.5 CALM 0 0 0 0 1008.5 1008.2 0.0
21/04:30am 26.8 30.4 19.7 65 4.6 CALM 0 0 0 0 1008.2 1007.9 0.0
21/04:00am 27.5 29.4 19.8 63 5.0 WSW 9 17 5 9 1008.2 1007.9 0.0
21/03:30am 27.7 31.3 19.8 62 5.2 CALM 0 0 0 0 1007.9 1007.6 0.0
21/03:00am 27.9 31.6 19.9 61 5.2 CALM 0 0 0 0 1007.9 1007.6 0.0
21/02:30am 28.2 30.6 19.7 60 5.6 SSW 6 7 3 4 1008.1 1007.8 0.0
21/02:00am 28.9 32.2 19.2 55 6.3 CALM 0 0 0 0 1008.0 1007.7 0.0
21/01:30am 29.2 32.4 18.9 53 6.7 CALM 0 6 0 3 1008.0 1007.7 0.0
21/01:00am 29.5 32.8 19.2 54 6.7 CALM 0 0 0 0 1008.3 1008.0 0.0
21/12:30am 29.8 33.0 18.9 52 7.1 CALM 0 0 0 0 1008.5 1008.2 0.0
21/12:00am 30.3 33.0 18.7 50 7.5 WNW 2 7 1 4 1008.7 1008.4 0.0
 
Date/Time
CST
Temp
°C
App
Temp
°C
Dew
Point
°C
Rel
Hum
%
Delta-T
°C
Wind Press
QNH
hPa
Press
MSL
hPa
Rain since
9am
mm
Dir  Spd
km/h
Gust
km/h
Spd
kts
Gust
kts
20/11:30pm 30.9 31.9 18.6 48 8.0 WSW 11 19 6 10 1008.9 1008.6 0.0
20/11:00pm 31.2 33.8 18.5 46 8.2 W 2 6 1 3 1008.5 1008.2 0.0
20/10:30pm 31.9 33.9 18.8 45 8.5 NW 6 9 3 5 1008.4 1008.1 0.0
20/10:00pm 32.4 34.0 17.8 41 9.4 NNE 6 9 3 5 1008.0 1007.7 0.0
20/09:30pm 33.2 34.3 17.0 38 10.3 N 7 9 4 5 1008.0 1007.7 0.0
20/09:00pm 33.5 34.3 17.2 37 10.5 N 9 13 5 7 1007.9 1007.6 0.0
20/08:30pm 34.0 34.6 16.8 35 11.0 NNW 9 13 5 7 1007.6 1007.3 0.0
20/08:00pm 34.5 34.8 14.9 31 12.2 N 7 11 4 6 1007.3 1007.0 0.0
20/07:30pm 35.4 35.8 15.2 30 12.7 NNW 7 11 4 6 1006.9 1006.6 0.0
20/07:00pm 36.1 36.3 15.8 30 12.8 NW 9 13 5 7 1006.5 1006.2 0.0
20/06:30pm 37.2 36.6 15.6 27 13.7 NW 13 20 7 11 1006.2 1005.9 0.0
20/06:00pm 38.6 37.9 16.3 27 14.4 NW 15 22 8 12 1005.9 1005.6 0.0
20/05:30pm 41.2 39.8 9.4 15 18.8 E 7 15 4 8 1005.6 1005.3 0.0
20/05:00pm 41.7 39.0 8.8 14 19.3 ESE 13 24 7 13 1005.6 1005.3 0.0
20/04:30pm 41.0 39.1 9.2 15 18.7 SE 9 17 5 9 1005.8 1005.5 0.0
20/04:00pm 42.2 39.3 8.1 13 19.8 E 13 22 7 12 1005.7 1005.4 0.0
20/03:30pm 40.8 39.3 9.1 15 18.6 WNW 7 13 4 7 1006.0 1005.7 0.0
20/03:00pm 40.7 39.8 12.6 19 17.3 SSW 9 20 5 11 1006.4 1006.1 0.0
20/02:30pm 40.4 38.7 14.6 22 16.3 S 17 26 9 14 1006.9 1006.6 0.0
20/02:00pm 39.5 39.9 15.2 24 15.4 NW 7 15 4 8 1007.3 1007.0 0.0
20/01:30pm 39.4 39.2 15.7 24 15.2 W 11 22 6 12 1007.8 1007.5 0.0
20/01:00pm 39.1 37.8 16.7 27 14.5 WSW 19 37 10 20 1008.4 1008.1 0.0
20/12:30pm 38.3 38.4 16.6 28 14.0 SW 11 20 6 11 1009.1 1008.8 0.0
20/12:00pm 38.0 38.5 17.4 29 13.4 SW 11 20 6 11 1009.8 1009.5 0.0
20/11:30am 36.7 37.6 19.2 36 11.6 WSW 13 20 7 11 1010.4 1010.1 0.0
20/11:00am 36.2 38.6 20.8 40 10.4 WSW 9 15 5 8 1010.9 1010.6 0.0
20/10:30am 34.7 36.5 20.3 43 9.7 W 11 20 6 11 1011.3 1011.0 0.0
20/10:00am 33.8 35.1 20.9 46 8.7 SW 15 20 8 11 1011.6 1011.3 0.0
20/09:30am 32.7 34.0 20.9 49 7.9 WSW 15 22 8 12 1011.8 1011.5 0.0
20/09:00am 31.7 32.6 20.9 52 7.2 WSW 17 30 9 16 1012.0 1011.7 0.2
20/08:30am 30.6 32.5 20.5 54 6.7 WSW 11 15 6 8 1011.8 1011.5 0.2
20/08:00am 29.4 32.7 20.8 60 5.7 SW 4 9 2 5 1011.7 1011.4 0.2
20/07:30am 28.0 32.1 21.5 67 4.3 WSW 2 7 1 4 1011.5 1011.2 0.2
20/07:00am 26.8 31.2 21.3 72 3.7 CALM 0 0 0 0 1011.3 1011.0 0.2
20/06:30am 26.3 30.6 21.1 73 3.4 CALM 0 0 0 0 1010.9 1010.6 0.2
20/06:00am 26.5 31.0 21.5 74 3.3 CALM 0 0 0 0 1010.4 1010.1 0.2
20/05:30am 26.9 31.4 21.6 72 3.5 CALM 0 4 0 2 1010.2 1009.9 0.2
20/05:00am 27.4 30.6 21.2 69 4.1 SSW 6 7 3 4 1009.8 1009.5 0.2
20/04:30am 27.6 30.6 20.9 67 4.4 SSW 6 7 3 4 1009.7 1009.4 0.2
20/04:00am 28.2 32.4 21.0 65 4.8 CALM 0 0 0 0 1009.5 1009.2 0.2
20/03:30am 28.2 32.2 20.5 63 5.1 CALM 0 0 0 0 1009.2 1008.9 0.2
20/03:00am 28.6 32.5 20.3 60 5.5 CALM 0 0 0 0 1009.1 1008.8 0.2
20/02:30am 28.6 31.2 20.1 60 5.6 NNW 6 7 3 4 1009.1 1008.8 0.2
20/02:00am 28.8 32.1 20.0 59 5.8 N 2 6 1 3 1009.0 1008.7 0.2
20/01:30am 29.2 32.1 19.8 57 6.2 N 4 6 2 3 1009.1 1008.8 0.2
20/01:00am 29.4 32.0 20.0 57 6.2 NNW 6 7 3 4 1009.3 1009.0 0.2
20/12:30am 29.5 32.3 20.4 58 6.0 W 6 9 3 5 1009.5 1009.2 0.2
20/12:00am 29.6 32.8 20.5 58 6.0 WSW 4 9 2 5 1009.6 1009.3 0.2
 
Date/Time
CST
Temp
°C
App
Temp
°C
Dew
Point
°C
Rel
Hum
%
Delta-T
°C
Wind Press
QNH
hPa
Press
MSL
hPa
Rain since
9am
mm
Dir  Spd
km/h
Gust
km/h
Spd
kts
Gust
kts
19/11:30pm 29.7 32.5 20.5 57 6.1 WNW 6 7 3 4 1010.0 1009.7 0.2
19/11:00pm 29.9 32.5 20.5 57 6.2 WNW 7 9 4 5 1010.2 1009.9 0.2
19/10:30pm 30.2 33.9 20.7 56 6.3 W 2 7 1 4 1010.2 1009.9 0.2
19/10:00pm 30.5 33.2 20.7 55 6.5 WNW 7 11 4 6 1009.8 1009.5 0.2
19/09:30pm 30.5 32.6 20.1 53 6.9 NNE 9 13 5 7 1009.2 1008.9 0.2
19/09:00pm 31.1 31.9 19.1 48 7.8 N 13 20 7 11 1008.8 1008.5 0.2
19/08:30pm 30.9 32.9 19.9 52 7.3 NE 9 20 5 11 1008.1 1007.8 0.2
19/08:00pm 30.2 32.8 19.3 52 7.1 SE 4 11 2 6 1007.3 1007.0 0.2
19/07:30pm 30.2 32.2 19.9 54 6.8 N 9 13 5 7 1007.2 1006.9 0.2
19/07:00pm 29.3 30.8 20.5 59 5.8 SE 13 20 7 11 1008.0 1007.7 0.2
19/06:30pm 30.1 28.4 19.8 54 6.8 SSE 28 39 15 21 1008.4 1008.1 0.2
19/06:00pm 34.5 34.0 17.7 37 10.9 SSE 17 24 9 13 1007.9 1007.6 0.2
19/05:30pm 34.6 35.8 18.2 37 10.7 NNE 9 17 5 9 1006.1 1005.8 0.2
19/05:00pm 34.3 35.4 18.8 40 10.2 NW 11 17 6 9 1005.8 1005.5 0.2
19/04:30pm 34.8 34.9 17.5 35 11.2 WNW 13 20 7 11 1006.1 1005.8 0.2
19/04:00pm 37.4 36.5 16.9 30 13.2 NW 17 26 9 14 1005.8 1005.5 0.2
19/03:30pm 37.8 37.5 19.2 33 12.4 NW 19 28 10 15 1005.7 1005.4 0.2
19/03:00pm 34.9 36.5 20.8 43 9.5 W 13 26 7 14 1006.5 1006.2 0.2
19/02:46pm 33.0 34.6 22.1 52 7.4 W 17 33 9 18 1006.8 1006.5 0.2
19/02:30pm 38.3 38.4 19.2 32 12.8 NW 17 28 9 15 1007.0 1006.7 0.2
19/02:00pm 37.1 36.4 19.5 35 11.7 WNW 22 33 12 18 1007.5 1007.2 0.2
19/01:30pm 37.4 38.1 18.9 34 12.3 WNW 13 20 7 11 1008.0 1007.7 0.2
19/01:00pm 37.5 38.1 18.5 32 12.5 WSW 13 20 7 11 1008.6 1008.3 0.2
19/12:30pm 37.3 37.8 18.3 32 12.5 WNW 13 24 7 13 1009.1 1008.8 0.2
19/12:00pm 37.3 38.5 20.6 37 11.3 WSW 15 24 8 13 1009.6 1009.3 0.2
19/11:30am 36.1 37.2 20.4 40 10.6 W 15 30 8 16 1010.0 1009.7 0.2
19/11:00am 35.3 38.1 23.0 49 8.5 W 13 22 7 12 1010.3 1010.0 0.2
19/10:30am 33.6 36.7 22.1 51 7.9 W 9 19 5 10 1010.6 1010.3 0.0
19/10:00am 32.2 35.1 21.7 54 7.1 WNW 9 15 5 8 1010.9 1010.6 0.0
19/09:30am 31.0 33.8 20.9 55 6.8 W 7 11 4 6 1010.9 1010.6 0.0
19/09:00am 29.9 32.4 20.2 56 6.4 NW 7 9 4 5 1010.8 1010.5 0.0
19/08:30am 29.0 29.8 19.0 54 6.5 NW 13 19 7 10 1010.7 1010.4 0.0
19/08:00am 27.9 27.9 17.1 51 6.8 N 13 20 7 11 1010.8 1010.5 0.0
19/07:30am 26.8 25.6 17.0 55 6.1 NE 19 33 10 18 1011.2 1010.9 0.0
19/07:00am 29.3 33.6 25.5 80 2.7 NE 13 24 7 13 1010.7 1010.4 0.0
19/06:30am 28.7 33.4 24.3 77 3.1 ENE 7 11 4 6 1010.2 1009.9 0.0
19/06:00am 29.0 33.7 25.0 79 2.8 NNE 9 17 5 9 1009.6 1009.3 0.0
19/05:30am 29.0 33.4 25.0 79 2.8 NNE 11 19 6 10 1009.1 1008.8 0.0
19/05:00am 29.3 33.5 24.8 77 3.2 N 11 17 6 9 1009.0 1008.7 0.0
19/04:30am 29.6 33.6 25.1 77 3.2 N 13 20 7 11 1008.9 1008.6 0.0
19/04:00am 29.5 34.3 25.7 80 2.7 N 11 17 6 9 1008.6 1008.3 0.0
19/03:30am 29.6 34.3 25.6 79 2.8 N 11 17 6 9 1008.2 1007.9 0.0
19/03:00am 29.6 34.2 25.4 78 3.0 N 11 17 6 9 1008.3 1008.0 0.0
19/02:30am 29.7 34.7 25.4 78 3.0 NNE 9 15 5 8 1008.3 1008.0 0.0
19/02:00am 29.8 34.6 25.1 76 3.3 N 9 13 5 7 1008.6 1008.3 0.0
19/01:30am 30.1 34.3 24.7 73 3.8 NNE 11 17 6 9 1008.5 1008.2 0.0
19/01:00am 30.3 34.2 24.2 70 4.3 N 11 19 6 10 1008.7 1008.4 0.0
19/12:30am 30.4 34.3 23.6 67 4.7 N 9 15 5 8 1008.7 1008.4 0.0
19/12:00am 30.6 34.7 23.3 65 5.0 N 7 11 4 6 1008.7 1008.4 0.0
 
Date/Time
CST
Temp
°C
App
Temp
°C
Dew
Point
°C
Rel
Hum
%
Delta-T
°C
Wind Press
QNH
hPa
Press
MSL
hPa
Rain since
9am
mm
Dir  Spd
km/h
Gust
km/h
Spd
kts
Gust
kts
18/11:30pm 31.0 35.3 23.6 64 5.1 N 7 9 4 5 1008.8 1008.5 0.0
18/11:00pm 31.4 35.4 23.8 64 5.3 N 9 13 5 7 1008.8 1008.5 0.0
18/10:30pm 31.7 35.1 24.0 63 5.4 NNE 13 19 7 10 1008.6 1008.3 0.0
18/10:00pm 32.0 35.4 24.1 63 5.5 NNE 13 20 7 11 1008.4 1008.1 0.0
18/09:30pm 32.5 36.2 24.5 62 5.6 NNE 13 19 7 10 1008.1 1007.8 0.0
18/09:00pm 32.9 36.5 24.4 61 6.0 NNE 13 19 7 10 1007.7 1007.4 0.0
18/08:30pm 33.4 36.4 24.0 58 6.6 NNE 15 24 8 13 1007.3 1007.0 0.0
18/08:00pm 35.0 36.3 19.4 40 10.3 N 11 19 6 10 1007.1 1006.8 0.0

Other formats

Comma delimited format used in spreadsheet applications
http://www.bom.gov.au/fwo/IDD60801/IDD60801.94239.axf

JavaScript Object Notation format (JSON) in row-major order
http://www.bom.gov.au/fwo/IDD60801/IDD60801.94239.json

Data quality

Most of these data are generated automatically and are frequently updated. Quality checks on data are not normally performed. It is possible for incorrect values to appear. Refer to information at About Latest Weather Observations and please check the disclaimer before using these data.